Columbus, OH (43210)

11:54 AM EST on January 29, 2015 (GMT -0500)
University View | Change Station
CLOSE
Current Station
Personal Weather Station
Location: Columbus, OH
Elevation: 755 ft
Nearby Weather Stations

Elev 755 ft 40.00 °N, 83.03 °W | Updated 7 seconds ago

Overcast
Overcast
41.2 °F
Feels Like 41 °F
N
1.6
Wind Variable Wind from WSW
Gusts 3.8 mph

Today
High -- | Low -- °F
--% Chance of Precip.
Yesterday
High -- | Low -- °F
Precip. -- in
7:43 AM 5:47 PM
Waxing Gibbous, 75% visible
Pressure 29.86 in
Visibility 10.0 miles
Clouds Scattered Clouds 7000 ft
Windchill 41 °F
Dew Point 34 °F
Humidity 75%
Rainfall 0.11 in
Snow Depth Not available.
UV 2 out of 12
Pollen .10 out of 12
Air Quality Not available.
Flu Activity Not available.
METAR KOSU 291553Z 17010KT 10SM SCT070 01/M02 A2983 RMK AO2 FZRAE43 SLP111 P0000 I1000 T00111017

More Conditions Fewer Conditions

Pressure 29.86 in
Visibility 10.0 miles
Clouds Scattered Clouds 7000 ft
Windchill 41 °F
Dew Point 34 °F
Humidity 75%
Rainfall 0.11 in
Snow Depth Not available.
UV 2 out of 12
Pollen .10 out of 12
Air Quality Not available.
Flu Activity Not available.
METAR KOSU 291553Z 17010KT 10SM SCT070 01/M02 A2983 RMK AO2 FZRAE43 SLP111 P0000 I1000 T00111017

More Conditions Fewer Conditions

10-Day Weather Forecast

Almanac

Astronomy

Jan. 29, 2015 Rise Set
Actual Time
Civil Twilight
Nautical Twilight
Astronomical Twilight
Moon
Length of Visible Light
Length of Day
Tomorrow will be .
, % of the Moon is Illuminated

Today's Extremes

State Highs State Lows

Community

WunderPhotos

Upload Photos

1,791,476 photos uploaded!

WunderBlogs® & News

Nearby

Air Quality

  Air Quality AQ Index Pollutant
Not available.

Snow Depth

Station Depth Elevation

Earthquake Activity

City Distance Mag. Time & Date
Minimum magnitude displayed is 2.5.

Coastal Water Temperatures

Place Temperature

Nearby Weather Stations